Time;durP1;ratioP1;P1;durP2;ratioP2;P2;SDS_P1;SDS_P2;PMS_P1;PMS_P2;Temp;Humidity;BMP_temperature;BMP_pressure;BME280_temperature;BME280_humidity;BME280_pressure;Samples;Min_cycle;Max_cycle;Signal;HPM_P1;HPM_P2
2023/02/27 00:00:25;;;;;;;0.62;0.62;;;;;;;-2.97;71.43;97232.72;29371;371;64009;-64
2023/02/27 00:00:58;;;;;;;0.70;0.70;;;;;;;-2.94;70.80;97223.53;29373;214;63009;-64
2023/02/27 00:01:32;;;;;;;0.70;0.70;;;;;;;-2.94;71.31;97228.84;29373;197;63005;-65
2023/02/27 00:02:03;;;;;;;0.70;0.70;;;;;;;-2.96;71.23;97226.37;29373;333;63009;-61
2023/02/27 00:02:38;;;;;;;0.60;0.60;;;;;;;-2.98;71.18;97223.09;29373;220;63004;-64
2023/02/27 00:03:09;;;;;;;0.70;0.70;;;;;;;-3.00;71.20;97224.31;29373;320;63019;-66
2023/02/27 00:03:40;;;;;;;0.70;0.70;;;;;;;-2.98;71.28;97216.97;29373;231;63004;-65
2023/02/27 00:04:12;;;;;;;0.70;0.70;;;;;;;-2.99;71.85;97229.44;29373;214;63009;-65
2023/02/27 00:04:43;;;;;;;0.60;0.60;;;;;;;-3.00;72.11;97235.75;29373;258;63004;-63
2023/02/27 00:05:16;;;;;;;0.70;0.70;;;;;;;-2.97;71.63;97230.06;29373;243;63008;-65
2023/02/27 00:05:47;;;;;;;0.60;0.60;;;;;;;-2.95;70.93;97228.03;29371;205;64008;-64
2023/02/27 00:06:19;;;;;;;0.70;0.70;;;;;;;-2.93;70.99;97226.00;29373;218;63009;-64
2023/02/27 00:06:50;;;;;;;0.70;0.70;;;;;;;-2.92;70.83;97224.97;29373;320;63005;-64
2023/02/27 00:07:24;;;;;;;0.70;0.70;;;;;;;-2.93;71.22;97226.00;29373;232;63009;-67
2023/02/27 00:07:56;;;;;;;0.90;0.90;;;;;;;-2.93;71.41;97226.00;29373;226;63005;-65
2023/02/27 00:08:27;;;;;;;0.60;0.60;;;;;;;-2.94;71.87;97234.97;29373;310;63009;-65
2023/02/27 00:08:59;;;;;;;0.60;0.60;;;;;;;-2.98;71.89;97228.41;29373;212;63007;-65
2023/02/27 00:09:30;;;;;;;0.70;0.70;;;;;;;-2.97;71.62;97227.41;29373;251;63009;-64
2023/02/27 00:10:02;;;;;;;0.65;0.65;;;;;;;-2.97;72.06;97224.75;29373;225;63005;-64
2023/02/27 00:10:33;;;;;;;0.70;0.70;;;;;;;-2.97;72.28;97231.91;29373;216;63009;-65
2023/02/27 00:11:08;;;;;;;0.70;0.70;;;;;;;-2.96;72.13;97230.88;29371;209;64009;-64
2023/02/27 00:11:39;;;;;;;0.70;0.70;;;;;;;-2.97;71.99;97230.06;29373;241;63009;-65
2023/02/27 00:12:10;;;;;;;0.70;0.70;;;;;;;-2.96;71.54;97229.03;29373;220;63004;-65
2023/02/27 00:12:43;;;;;;;0.68;0.68;;;;;;;-2.96;71.42;97230.88;29373;321;63025;-64
2023/02/27 00:13:15;;;;;;;0.62;0.62;;;;;;;-2.99;71.33;97226.78;29371;210;64008;-64
2023/02/27 00:13:46;;;;;;;0.70;0.70;;;;;;;-3.02;71.24;97227.19;29373;204;63009;-61
2023/02/27 00:14:18;;;;;;;0.70;0.70;;;;;;;-3.03;71.18;97225.53;29373;213;63005;-65
2023/02/27 00:14:50;;;;;;;0.60;0.60;;;;;;;-3.01;71.17;97226.16;29373;235;63009;-64
2023/02/27 00:15:22;;;;;;;0.60;0.60;;;;;;;-3.02;71.01;97224.53;29373;328;63005;-65
2023/02/27 00:15:55;;;;;;;0.70;0.70;;;;;;;-3.01;71.12;97222.69;29373;233;63009;-61
2023/02/27 00:16:26;;;;;;;0.70;0.70;;;;;;;-3.04;71.14;97224.72;29373;302;63005;-65
2023/02/27 00:16:58;;;;;;;0.70;0.70;;;;;;;-3.02;71.63;97227.19;29373;214;63009;-64
2023/02/27 00:17:29;;;;;;;0.70;0.70;;;;;;;-3.02;71.41;97221.88;29373;350;63005;-65
2023/02/27 00:18:00;;;;;;;0.60;0.60;;;;;;;-3.02;71.81;97216.56;29373;289;63009;-68
2023/02/27 00:18:33;;;;;;;0.70;0.70;;;;;;;-3.02;72.18;97221.88;29371;203;64009;-64
2023/02/27 00:19:05;;;;;;;0.70;0.70;;;;;;;-3.07;72.56;97221.63;29373;200;63009;-65
2023/02/27 00:19:36;;;;;;;0.70;0.70;;;;;;;-3.05;72.59;97232.88;29373;202;63004;-65
2023/02/27 00:20:12;;;;;;;0.70;0.70;;;;;;;-3.06;72.58;97226.75;29373;202;63009;-63
2023/02/27 00:20:47;;;;;;;0.70;0.70;;;;;;;-3.08;72.03;97223.47;29373;219;63008;-65
2023/02/27 00:21:19;;;;;;;0.70;0.70;;;;;;;-3.09;72.39;97227.16;29373;208;63009;-64
2023/02/27 00:21:50;;;;;;;0.70;0.70;;;;;;;-3.08;72.43;97227.97;29373;203;63005;-64
2023/02/27 00:22:22;;;;;;;0.70;0.70;;;;;;;-3.09;72.62;97226.31;29373;356;63009;-65
2023/02/27 00:22:53;;;;;;;0.60;0.60;;;;;;;-3.08;72.69;97228.78;29373;289;63005;-65
2023/02/27 00:23:25;;;;;;;2.22;2.17;;;;;;;-3.08;73.23;97223.47;29371;286;64013;-65
2023/02/27 00:23:56;;;;;;;0.80;0.80;;;;;;;-3.07;72.92;97224.28;29373;273;63005;-65
2023/02/27 00:24:28;;;;;;;0.70;0.70;;;;;;;-3.07;73.14;97218.97;29373;198;63009;-63
2023/02/27 00:25:02;;;;;;;0.60;0.60;;;;;;;-3.07;72.85;97224.28;29373;203;63005;-66
2023/02/27 00:25:34;;;;;;;0.70;0.70;;;;;;;-3.05;72.99;97224.91;29373;198;63009;-65
2023/02/27 00:26:06;;;;;;;0.70;0.70;;;;;;;-3.06;72.74;97225.94;29371;274;64009;-64
2023/02/27 00:26:39;;;;;;;0.70;0.70;;;;;;;-3.08;72.88;97227.97;29373;340;63009;-64
2023/02/27 00:27:10;;;;;;;0.62;0.62;;;;;;;-3.08;72.37;97220.00;29373;221;63004;-64
2023/02/27 00:27:43;;;;;;;0.70;0.70;;;;;;;-3.11;72.46;97220.41;29373;206;63015;-65
2023/02/27 00:28:15;;;;;;;0.60;0.60;;;;;;;-3.12;72.66;97224.09;29373;284;63004;-63
2023/02/27 00:28:46;;;;;;;0.70;0.70;;;;;;;-3.13;72.72;97219.81;29371;222;64014;-65
2023/02/27 00:29:18;;;;;;;0.93;0.93;;;;;;;-3.12;72.74;97221.44;29373;307;63005;-63
2023/02/27 00:29:50;;;;;;;0.70;0.70;;;;;;;-3.10;72.62;97222.03;29373;322;63009;-64
2023/02/27 00:30:21;;;;;;;0.60;0.60;;;;;;;-3.10;73.35;97227.34;29373;281;63005;-63
2023/02/27 00:30:53;;;;;;;0.70;0.70;;;;;;;-3.12;73.58;97227.53;29371;220;64013;-64
2023/02/27 00:31:25;;;;;;;0.70;0.70;;;;;;;-3.12;73.56;97226.75;29371;225;64009;-63
2023/02/27 00:31:57;;;;;;;0.70;0.70;;;;;;;-3.13;73.42;97223.28;29373;304;63009;-64
2023/02/27 00:32:29;;;;;;;0.70;0.70;;;;;;;-3.11;73.05;97225.69;29372;291;64004;-65
2023/02/27 00:33:00;;;;;;;0.60;0.60;;;;;;;-3.07;73.00;97226.94;29373;202;63009;-64
2023/02/27 00:33:31;;;;;;;0.70;0.70;;;;;;;-3.05;72.68;97224.91;29371;210;64009;-65
2023/02/27 00:34:03;;;;;;;0.70;0.70;;;;;;;-3.06;72.76;97215.31;29373;249;63009;-65
2023/02/27 00:34:34;;;;;;;0.60;0.60;;;;;;;-3.07;73.13;97229.59;29373;218;63017;-60
2023/02/27 00:35:08;;;;;;;0.60;0.60;;;;;;;-3.10;73.46;97222.03;29373;365;63008;-65
2023/02/27 00:35:40;;;;;;;0.70;0.70;;;;;;;-3.13;73.14;97219.81;29371;209;64008;-64
2023/02/27 00:36:12;;;;;;;0.70;0.70;;;;;;;-3.15;73.16;97216.53;29371;210;64014;-63
2023/02/27 00:36:43;;;;;;;0.70;0.70;;;;;;;-3.14;72.81;97220.81;29373;233;63005;-65
2023/02/27 00:37:15;;;;;;;0.70;0.70;;;;;;;-3.16;72.58;97220.19;29373;222;63009;-65
2023/02/27 00:37:47;;;;;;;1.25;1.25;;;;;;;-3.17;72.55;97213.25;29373;209;63005;-65
2023/02/27 00:38:19;;;;;;;0.70;0.70;;;;;;;-3.16;72.84;97223.66;29373;229;63009;-64
2023/02/27 00:38:51;;;;;;;0.70;0.70;;;;;;;-3.16;72.70;97225.50;29373;216;63005;-64
2023/02/27 00:39:23;;;;;;;0.70;0.70;;;;;;;-3.14;72.50;97223.47;29373;238;63009;-63
2023/02/27 00:39:54;;;;;;;0.70;0.70;;;;;;;-3.12;72.77;97221.44;29373;251;63004;-65
2023/02/27 00:40:26;;;;;;;0.70;0.70;;;;;;;-3.10;72.83;97224.69;29373;369;63009;-65
2023/02/27 00:40:58;;;;;;;0.70;0.70;;;;;;;-3.09;72.78;97226.31;29371;199;64009;-64
2023/02/27 00:41:29;;;;;;;0.70;0.70;;;;;;;-3.09;73.25;97221.00;29373;359;63009;-65
2023/02/27 00:42:00;;;;;;;0.60;0.60;;;;;;;-3.10;73.41;97227.34;29372;213;63004;-64
2023/02/27 00:42:33;;;;;;;0.70;0.70;;;;;;;-3.11;73.41;97225.69;29373;218;63008;-64
2023/02/27 00:43:04;;;;;;;0.70;0.70;;;;;;;-3.11;73.56;97228.34;29373;207;63001;-65
2023/02/27 00:43:35;;;;;;;0.65;0.65;;;;;;;-3.10;74.22;97230.00;29373;260;63009;-66
2023/02/27 00:44:06;;;;;;;0.70;0.70;;;;;;;-3.11;74.00;97228.34;29371;212;64009;-65
2023/02/27 00:44:39;;;;;;;0.70;0.70;;;;;;;-3.11;73.80;97228.34;29373;289;63009;-65
2023/02/27 00:45:11;;;;;;;0.70;0.70;;;;;;;-3.13;73.84;97225.94;29373;367;63005;-64
2023/02/27 00:45:43;;;;;;;0.70;0.70;;;;;;;-3.16;73.40;97221.03;29373;267;63009;-63
2023/02/27 00:46:14;;;;;;;0.70;0.70;;;;;;;-3.18;73.20;97223.06;29373;334;63005;-65
2023/02/27 00:46:45;;;;;;;0.70;0.70;;;;;;;-3.19;73.36;97221.41;29373;261;63009;-65
2023/02/27 00:47:16;;;;;;;0.70;0.70;;;;;;;-3.19;73.21;97221.41;29373;267;63009;-64
2023/02/27 00:47:48;;;;;;;0.70;0.70;;;;;;;-3.19;73.70;97220.59;29373;281;63009;-64
2023/02/27 00:48:22;;;;;;;0.70;0.70;;;;;;;-3.21;73.39;97231.41;29373;260;63004;-65
2023/02/27 00:48:53;;;;;;;0.70;0.70;;;;;;;-3.23;73.63;97224.66;29373;208;63023;-65
2023/02/27 00:49:25;;;;;;;0.70;0.70;;;;;;;-3.24;73.28;97223.00;29371;242;64009;-65
2023/02/27 00:49:56;;;;;;;0.80;0.80;;;;;;;-3.23;73.20;97222.00;29373;280;63008;-64
2023/02/27 00:50:27;;;;;;;0.70;0.70;;;;;;;-3.24;73.30;97223.84;29373;233;63005;-64
2023/02/27 00:50:58;;;;;;;0.70;0.70;;;;;;;-3.21;73.61;97222.62;29373;333;63024;-65
2023/02/27 00:51:30;;;;;;;0.70;0.70;;;;;;;-3.21;74.66;97227.94;29373;197;63005;-64
2023/02/27 00:52:02;;;;;;;0.73;0.73;;;;;;;-3.25;74.25;97230.16;29373;203;63005;-65
2023/02/27 00:52:33;;;;;;;0.70;0.70;;;;;;;-3.26;74.94;97236.47;29373;217;63005;-63
2023/02/27 00:53:06;;;;;;;0.70;0.70;;;;;;;-3.27;74.89;97228.72;29373;230;63009;-64
2023/02/27 00:53:37;;;;;;;0.70;0.70;;;;;;;-3.28;74.92;97227.91;29373;210;63005;-66
2023/02/27 00:54:09;;;;;;;0.70;0.70;;;;;;;-3.27;74.69;97223.41;29371;234;64013;-65
2023/02/27 00:54:40;;;;;;;0.70;0.70;;;;;;;-3.26;74.38;97230.34;29372;208;63004;-65
2023/02/27 00:55:11;;;;;;;0.70;0.70;;;;;;;-3.23;74.30;97222.00;29373;252;63009;-65
2023/02/27 00:55:42;;;;;;;0.70;0.70;;;;;;;-3.22;74.42;97224.47;29372;301;63004;-64
2023/02/27 00:56:14;;;;;;;0.70;0.70;;;;;;;-3.20;74.50;97224.25;29373;206;63009;-64
2023/02/27 00:56:47;;;;;;;2.92;2.83;;;;;;;-3.21;74.38;97223.44;29373;286;63004;-64
2023/02/27 00:57:35;;;;;;;;;;;;;;;;;;;;;
2023/02/27 00:58:11;;;;;;;0.73;0.73;;;;;;;-3.16;73.86;97225.50;29373;307;63005;-66
2023/02/27 00:58:42;;;;;;;0.70;0.70;;;;;;;-3.14;73.40;97218.16;29373;216;63009;-65
2023/02/27 00:59:14;;;;;;;0.70;0.70;;;;;;;-3.16;73.46;97220.19;29371;220;64009;-66
2023/02/27 00:59:45;;;;;;;0.70;0.70;;;;;;;-3.20;72.89;97216.28;29373;218;63009;-66
2023/02/27 01:00:17;;;;;;;0.70;0.70;;;;;;;-3.10;72.45;97214.88;29373;211;63005;-64
2023/02/27 01:00:49;;;;;;;0.70;0.70;;;;;;;-3.10;71.71;97214.06;29373;267;63009;-65
2023/02/27 01:01:21;;;;;;;0.70;0.70;;;;;;;-3.12;71.43;97218.78;29373;208;63005;-66
2023/02/27 01:01:52;;;;;;;0.60;0.60;;;;;;;-3.15;71.73;97219.19;29373;202;63009;-64
2023/02/27 01:02:23;;;;;;;0.70;0.70;;;;;;;-3.19;72.14;97209.97;29373;292;63008;-61
2023/02/27 01:02:59;;;;;;;0.70;0.70;;;;;;;-3.23;72.17;97219.34;29373;227;63009;-65
2023/02/27 01:03:41;;;;;;;0.70;0.70;;;;;;;-3.22;72.07;97215.69;29373;198;63004;-64
2023/02/27 01:04:13;;;;;;;0.80;0.80;;;;;;;-3.22;72.15;97213.03;29371;202;64013;-64
2023/02/27 01:04:45;;;;;;;0.70;0.70;;;;;;;-3.22;72.12;97210.38;29373;242;63004;-61
2023/02/27 01:05:18;;;;;;;0.70;0.70;;;;;;;-3.24;72.24;97213.22;29373;248;63008;-64
2023/02/27 01:05:51;;;;;;;0.70;0.70;;;;;;;-3.26;73.00;97217.09;29372;198;64005;-64
2023/02/27 01:06:22;;;;;;;0.70;0.70;;;;;;;-3.27;72.63;97210.97;29373;220;63009;-65
2023/02/27 01:06:54;;;;;;;0.70;0.70;;;;;;;-3.27;73.01;97220.75;29373;225;63005;-64
2023/02/27 01:07:26;;;;;;;0.70;0.70;;;;;;;-3.29;73.60;97225.44;29371;220;64013;-65
2023/02/27 01:07:57;;;;;;;0.70;0.70;;;;;;;-3.30;73.54;97226.44;29373;221;63005;-65
2023/02/27 01:09:36;;;;;;;0.70;0.70;;;;;;;-3.22;73.32;97221.81;88178;202;64004;-63
2023/02/27 01:10:11;;;;;;;0.68;0.68;;;;;;;-3.19;73.11;97220.59;29394;360;64009;-65
2023/02/27 01:10:42;;;;;;;0.73;0.73;;;;;;;-3.16;73.17;97225.50;29373;251;63005;-65
2023/02/27 01:11:17;;;;;;;0.70;0.70;;;;;;;-3.16;72.99;97221.03;29373;222;63009;-64
2023/02/27 01:11:48;;;;;;;0.70;0.70;;;;;;;-3.14;73.05;97212.84;29373;202;63005;-68
2023/02/27 01:12:19;;;;;;;0.70;0.70;;;;;;;-3.13;72.98;97219.81;29373;233;63009;-64
2023/02/27 01:12:51;;;;;;;0.70;0.70;;;;;;;-3.12;72.82;97222.22;29372;284;64009;-64
2023/02/27 01:13:23;;;;;;;0.70;0.70;;;;;;;-3.06;72.43;97217.97;29373;202;63026;-64
2023/02/27 01:13:54;;;;;;;0.70;0.70;;;;;;;-3.07;72.32;97216.34;29373;218;63008;-66
2023/02/27 01:14:25;;;;;;;0.60;0.60;;;;;;;-3.08;72.06;97218.16;29373;252;63009;-63
2023/02/27 01:14:57;;;;;;;0.60;0.60;;;;;;;-3.06;72.12;97215.31;29373;276;63009;-65
2023/02/27 01:15:28;;;;;;;0.70;0.70;;;;;;;-3.07;72.03;97225.13;29373;202;63009;-63
2023/02/27 01:16:00;;;;;;;0.70;0.70;;;;;;;-3.07;71.67;97213.69;29371;249;64008;-65
2023/02/27 01:16:32;;;;;;;0.70;0.70;;;;;;;-3.07;71.83;97214.50;29373;214;63009;-64
2023/02/27 01:17:04;;;;;;;0.65;0.65;;;;;;;-3.07;71.75;97211.03;29373;269;63005;-64
2023/02/27 01:17:35;;;;;;;0.70;0.70;;;;;;;-3.07;71.88;97208.38;29373;243;63009;-64
2023/02/27 01:18:06;;;;;;;0.70;0.70;;;;;;;-3.07;71.90;97208.38;29373;290;63005;-65
2023/02/27 01:18:39;;;;;;;0.70;0.70;;;;;;;-3.07;71.97;97208.38;29373;197;63009;-64
2023/02/27 01:19:10;;;;;;;0.62;0.62;;;;;;;-3.07;72.50;97209.19;29371;213;64009;-65
2023/02/27 01:19:42;;;;;;;0.60;0.60;;;;;;;-3.05;72.31;97204.50;29373;231;63009;-65
2023/02/27 01:20:13;;;;;;;0.70;0.70;;;;;;;-3.02;71.35;97200.62;29373;210;63005;-64
2023/02/27 01:20:46;;;;;;;0.62;0.62;;;;;;;-3.04;71.37;97202.66;29373;246;63009;-64
2023/02/27 01:21:18;;;;;;;0.60;0.60;;;;;;;-3.05;71.39;97195.72;29371;251;64009;-67
2023/02/27 01:21:51;;;;;;;0.60;0.60;;;;;;;-3.05;71.59;97207.16;29373;202;63009;-64
2023/02/27 01:22:22;;;;;;;0.70;0.70;;;;;;;-3.04;71.60;97207.97;29373;232;63004;-64
2023/02/27 01:22:56;;;;;;;0.70;0.70;;;;;;;-3.10;71.15;97204.28;29371;222;64013;-64
2023/02/27 01:23:27;;;;;;;0.70;0.70;;;;;;;-3.09;71.23;97199.78;29373;223;63009;-65
2023/02/27 01:23:59;;;;;;;0.70;0.70;;;;;;;-3.08;71.29;97209.38;29373;241;63008;-64
2023/02/27 01:24:30;;;;;;;0.70;0.70;;;;;;;-3.07;70.93;97203.06;29371;207;64009;-65
2023/02/27 01:25:02;;;;;;;0.70;0.70;;;;;;;-3.12;71.05;97200.22;29373;242;63026;-63
2023/02/27 01:25:33;;;;;;;0.70;0.70;;;;;;;-3.10;71.18;97203.44;29373;319;63005;-64
2023/02/27 01:26:04;;;;;;;0.70;0.70;;;;;;;-3.10;71.05;97204.28;29373;204;63009;-65
2023/02/27 01:26:36;;;;;;;0.70;0.70;;;;;;;-3.10;71.30;97206.09;29373;197;63015;-63
2023/02/27 01:27:08;;;;;;;0.70;0.70;;;;;;;-3.10;71.08;97203.44;29373;208;63009;-64
2023/02/27 01:27:39;;;;;;;0.70;0.70;;;;;;;-3.10;71.39;97206.09;29373;290;63011;-63
2023/02/27 01:28:11;;;;;;;0.70;0.70;;;;;;;-3.07;71.47;97211.03;29371;319;64013;-64
2023/02/27 01:28:42;;;;;;;0.70;0.70;;;;;;;-3.07;71.67;97209.19;29373;199;63004;-65
2023/02/27 01:29:15;;;;;;;0.70;0.70;;;;;;;-3.07;71.87;97209.19;29371;365;64013;-64
2023/02/27 01:29:47;;;;;;;0.70;0.70;;;;;;;-3.07;72.02;97208.38;29373;356;63004;-63
2023/02/27 01:30:19;;;;;;;0.70;0.70;;;;;;;-3.06;71.66;97212.66;29373;198;63009;-65
2023/02/27 01:30:53;;;;;;;0.70;0.70;;;;;;;-2.99;71.37;97194.91;29373;319;63004;-65
2023/02/27 01:31:24;;;;;;;0.57;0.57;;;;;;;-2.96;70.75;97199.84;29373;202;63008;-65
2023/02/27 01:31:55;;;;;;;0.70;0.70;;;;;;;-2.93;70.43;97198.63;29373;219;63005;-64
2023/02/27 01:32:26;;;;;;;0.70;0.70;;;;;;;-2.94;70.12;97197.81;29373;212;63009;-65
2023/02/27 01:32:58;;;;;;;0.70;0.70;;;;;;;-2.94;70.20;97195.16;29373;249;63005;-63
2023/02/27 01:33:29;;;;;;;0.68;0.68;;;;;;;-2.94;70.11;97200.44;29373;249;63009;-66
2023/02/27 01:34:00;;;;;;;0.68;0.68;;;;;;;-2.95;70.25;97198.00;29373;251;63005;-65
2023/02/27 01:34:32;;;;;;;0.62;0.62;;;;;;;-2.97;70.34;97195.53;29371;210;64013;-64
2023/02/27 01:35:04;;;;;;;0.70;0.70;;;;;;;-2.98;70.31;97201.88;29373;212;63010;-65
2023/02/27 01:35:37;;;;;;;0.70;0.70;;;;;;;-3.01;70.72;97202.25;29373;262;63009;-65
2023/02/27 01:36:09;;;;;;;0.70;0.70;;;;;;;-3.04;71.15;97198.16;29373;202;63004;-65
2023/02/27 01:36:44;;;;;;;0.70;0.70;;;;;;;-3.07;71.39;97192.44;29373;221;63009;-64
2023/02/27 01:37:15;;;;;;;0.70;0.70;;;;;;;-3.08;71.64;97204.06;29372;197;64004;-60
2023/02/27 01:37:46;;;;;;;0.70;0.70;;;;;;;-3.08;71.77;97201.41;29371;278;64013;-64
2023/02/27 01:38:18;;;;;;;0.70;0.70;;;;;;;-3.07;71.99;97208.38;29373;291;63004;-60
2023/02/27 01:38:50;;;;;;;0.70;0.70;;;;;;;-3.10;72.42;97206.94;29373;285;63008;-65
2023/02/27 01:39:21;;;;;;;0.70;0.70;;;;;;;-3.11;72.69;97202.63;29373;244;63017;-65
2023/02/27 01:39:53;;;;;;;0.65;0.65;;;;;;;-3.12;73.07;97208.16;29373;323;63009;-65
2023/02/27 01:40:24;;;;;;;0.70;0.70;;;;;;;-3.15;73.42;97209.38;29373;216;63005;-64
2023/02/27 01:40:56;;;;;;;0.70;0.70;;;;;;;-3.16;72.92;97206.94;29373;222;63009;-65
2023/02/27 01:41:28;;;;;;;0.70;0.70;;;;;;;-3.16;73.19;97207.75;29373;230;63005;-66
2023/02/27 01:42:00;;;;;;;0.60;0.60;;;;;;;-3.15;72.98;97204.06;29373;338;63009;-65
2023/02/27 01:42:32;;;;;;;0.70;0.70;;;;;;;-3.15;73.41;97205.91;29371;219;64009;-65
2023/02/27 01:43:09;;;;;;;0.70;0.70;;;;;;;-3.17;73.25;97202.63;29373;319;63009;-64
2023/02/27 01:44:15;;;;;;;0.70;0.70;;;;;;;-3.19;73.53;97209.97;29373;235;63018;-64
2023/02/27 01:45:28;;;;;;;0.60;0.60;;;;;;;-3.16;72.99;97204.28;29371;217;64013;-63
2023/02/27 01:46:00;;;;;;;0.70;0.70;;;;;;;-3.15;72.76;97205.91;29373;370;63005;-64
2023/02/27 01:46:32;;;;;;;0.70;0.70;;;;;;;-3.17;73.24;97203.44;29373;204;63009;-65
2023/02/27 01:47:03;;;;;;;0.60;0.60;;;;;;;-3.21;73.19;97206.69;29371;221;64009;-65
2023/02/27 01:47:36;;;;;;;0.70;0.70;;;;;;;-3.20;73.16;97200.38;29373;202;63013;-64
2023/02/27 01:48:30;;;;;;;0.70;0.70;;;;;;;-3.19;72.82;97204.66;29373;282;63005;-65
2023/02/27 01:49:18;;;;;;;0.70;0.70;;;;;;;-3.20;72.41;97203.84;29373;198;63009;-65
2023/02/27 01:49:56;;;;;;;0.70;0.70;;;;;;;-3.22;72.17;97210.38;29371;212;64009;-65
2023/02/27 01:50:28;;;;;;;0.70;0.70;;;;;;;-3.24;72.19;97202.59;29373;351;63011;-63
2023/02/27 01:51:11;;;;;;;0.70;0.70;;;;;;;-3.23;72.37;97200.78;29373;394;63004;-65
2023/02/27 01:51:54;;;;;;;0.70;0.70;;;;;;;-3.23;72.21;97203.44;29373;227;63009;-65
2023/02/27 01:52:26;;;;;;;0.70;0.70;;;;;;;-3.24;72.76;97201.78;29373;202;63004;-64
2023/02/27 01:53:00;;;;;;;0.60;0.60;;;;;;;-3.22;72.48;97199.75;29373;261;63008;-65
2023/02/27 01:53:35;;;;;;;0.70;0.70;;;;;;;-3.23;72.57;97198.13;29373;230;63005;-65
2023/02/27 01:54:09;;;;;;;0.68;0.68;;;;;;;-3.23;72.78;97206.06;29371;292;64014;-65
2023/02/27 01:54:42;;;;;;;0.60;0.60;;;;;;;-3.24;73.05;97202.59;29372;280;63005;-64
2023/02/27 01:55:14;;;;;;;0.70;0.70;;;;;;;-3.24;73.12;97201.78;29373;246;63009;-64
2023/02/27 01:55:51;;;;;;;0.70;0.70;;;;;;;-3.25;73.24;97203.63;29373;243;63005;-65
2023/02/27 01:56:29;;;;;;;0.70;0.70;;;;;;;-3.27;72.74;97202.19;29373;224;63009;-64
2023/02/27 01:57:05;;;;;;;0.70;0.70;;;;;;;-3.25;72.88;97200.16;29373;207;63005;-64
2023/02/27 01:57:39;;;;;;;0.70;0.70;;;;;;;-3.16;72.07;97193.66;29371;263;64013;-63
2023/02/27 01:58:12;;;;;;;0.70;0.70;;;;;;;-3.15;71.84;97190.00;29373;198;63004;-65
2023/02/27 01:58:47;;;;;;;0.60;0.60;;;;;;;-3.15;71.44;97184.69;29373;202;63009;-59
2023/02/27 01:59:20;;;;;;;0.70;0.70;;;;;;;-3.15;71.76;97190.00;29373;208;63004;-65
2023/02/27 01:59:52;;;;;;;0.70;0.70;;;;;;;-3.17;71.68;97187.53;29373;247;63009;-63
2023/02/27 02:00:24;;;;;;;0.70;0.70;;;;;;;-3.18;71.92;97188.53;29373;212;63004;-64
2023/02/27 02:00:56;;;;;;;0.70;0.70;;;;;;;-3.21;72.04;97191.59;29373;199;63017;-64
2023/02/27 02:01:29;;;;;;;0.70;0.70;;;;;;;-3.23;72.10;97192.81;29373;203;63005;-65
2023/02/27 02:02:06;;;;;;;0.68;0.68;;;;;;;-3.21;72.19;97190.78;29371;251;64014;-65
2023/02/27 02:02:44;;;;;;;0.70;0.70;;;;;;;-3.20;72.03;97184.44;29373;237;63005;-65
2023/02/27 02:03:32;;;;;;;0.62;0.62;;;;;;;-3.20;71.84;97187.91;29373;213;63009;-65
2023/02/27 02:04:35;;;;;;;0.60;0.60;;;;;;;-3.20;71.91;97187.09;29372;311;64005;-65
2023/02/27 02:05:08;;;;;;;0.60;0.60;;;;;;;-3.18;71.84;97191.19;29373;209;63009;-64
2023/02/27 02:05:40;;;;;;;0.70;0.70;;;;;;;-3.18;71.53;97185.88;29371;244;63999;-63
2023/02/27 02:06:12;;;;;;;0.70;0.70;;;;;;;-3.19;71.27;97178.12;29373;208;63009;-65
2023/02/27 02:06:48;;;;;;;0.70;0.70;;;;;;;-3.19;71.70;97183.44;29373;203;63004;-67
2023/02/27 02:07:20;;;;;;;0.70;0.70;;;;;;;-3.20;72.12;97182.63;29373;227;63009;-64
2023/02/27 02:07:52;;;;;;;0.70;0.70;;;;;;;-3.17;72.39;97192.84;29373;342;63004;-65
2023/02/27 02:08:27;;;;;;;0.70;0.70;;;;;;;-3.17;72.71;97187.53;29373;197;63008;-65
2023/02/27 02:09:01;;;;;;;0.70;0.70;;;;;;;-3.19;72.61;97194.88;29373;348;63005;-65
2023/02/27 02:09:41;;;;;;;0.70;0.70;;;;;;;-3.17;72.71;97192.84;29371;226;64014;-64
2023/02/27 02:10:15;;;;;;;0.70;0.70;;;;;;;-3.17;72.48;97187.53;29373;218;63005;-63
2023/02/27 02:10:50;;;;;;;0.70;0.70;;;;;;;-3.19;72.30;97188.75;29373;218;63009;-64
2023/02/27 02:11:23;;;;;;;0.70;0.70;;;;;;;-3.18;72.13;97187.72;29371;227;64009;-65
2023/02/27 02:11:56;;;;;;;0.70;0.70;;;;;;;-3.17;72.22;97187.53;29373;230;63019;-64
2023/02/27 02:12:34;;;;;;;0.70;0.70;;;;;;;-3.15;72.21;97195.28;29373;244;63005;-64
2023/02/27 02:13:06;;;;;;;0.70;0.70;;;;;;;-3.13;71.71;97193.25;29373;202;63009;-65
2023/02/27 02:13:39;;;;;;;0.70;0.70;;;;;;;-3.15;72.07;97190.81;29373;307;63004;-65
2023/02/27 02:14:11;;;;;;;0.70;0.70;;;;;;;-3.16;71.92;97189.16;29373;196;63009;-64
2023/02/27 02:14:43;;;;;;;0.70;0.70;;;;;;;-3.15;71.97;97190.00;29373;316;63017;-64
2023/02/27 02:15:16;;;;;;;0.60;0.60;;;;;;;-3.10;71.62;97187.53;29373;338;63008;-66
2023/02/27 02:16:18;;;;;;;0.70;0.70;;;;;;;-3.05;71.78;97190.41;29373;212;63008;-64
2023/02/27 02:17:11;;;;;;;0.70;0.70;;;;;;;-3.04;71.20;97184.06;29393;213;64014;-65
2023/02/27 02:18:36;;;;;;;0.70;0.70;;;;;;;-3.12;71.39;97186.94;29395;203;63004;-60
2023/02/27 02:19:52;;;;;;;0.70;0.70;;;;;;;-3.13;71.67;97185.31;29373;291;63009;-64
2023/02/27 02:21:01;;;;;;;0.70;0.70;;;;;;;-3.06;71.17;97186.13;29371;215;64001;-67
2023/02/27 02:22:12;;;;;;;0.70;0.70;;;;;;;-3.10;71.51;97195.50;29373;246;63009;-63
2023/02/27 02:23:21;;;;;;;0.70;0.70;;;;;;;-3.13;72.00;97190.59;29373;225;63009;-64
2023/02/27 02:24:33;;;;;;;0.70;0.70;;;;;;;-3.17;72.34;97202.63;29373;323;63009;-64
2023/02/27 02:25:45;;;;;;;0.70;0.70;;;;;;;-3.15;72.05;97190.00;29393;223;64014;-65
2023/02/27 02:26:47;;;;;;;0.70;0.70;;;;;;;-3.13;72.16;97198.56;29395;225;63005;-65
2023/02/27 02:27:47;;;;;;;0.70;0.70;;;;;;;-3.12;72.19;97194.91;29393;207;64013;-64
2023/02/27 02:29:16;;;;;;;0.70;0.70;;;;;;;-3.15;72.63;97200.59;29395;202;63004;-65
2023/02/27 02:30:44;;;;;;;0.70;0.70;;;;;;;-3.17;72.66;97197.31;29373;218;63009;-65
2023/02/27 02:31:45;;;;;;;0.65;0.65;;;;;;;-3.19;72.75;97200.19;29371;324;64014;-65
2023/02/27 02:33:01;;;;;;;0.70;0.70;;;;;;;-3.19;73.29;97194.06;29371;296;64009;-64
2023/02/27 02:34:02;;;;;;;0.70;0.70;;;;;;;-3.19;73.40;97202.00;29373;389;63009;-65
2023/02/27 02:35:20;;;;;;;1.02;1.02;;;;;;;-3.15;72.76;97201.41;29353;350;126009;-63
2023/02/27 02:36:44;;;;;;;0.70;0.70;;;;;;;-3.11;72.75;97196.50;29395;227;63009;-64
2023/02/27 02:38:03;;;;;;;0.70;0.70;;;;;;;-3.12;72.63;97200.22;29373;209;63004;-64
2023/02/27 02:39:14;;;;;;;0.70;0.70;;;;;;;-3.00;72.07;97189.81;29371;220;64008;-66
2023/02/27 02:40:08;;;;;;;0.65;0.65;;;;;;;-2.93;71.62;97190.66;29373;207;63009;-66
2023/02/27 02:40:56;;;;;;;0.80;0.80;;;;;;;-2.97;71.49;97189.41;29373;228;63026;-65
2023/02/27 02:42:03;;;;;;;0.70;0.70;;;;;;;-3.06;72.55;97199.38;29371;332;64009;-65
2023/02/27 02:43:05;;;;;;;0.80;0.80;;;;;;;-3.10;72.70;97198.16;29373;377;63009;-64
2023/02/27 02:44:04;;;;;;;0.80;0.80;;;;;;;-3.11;72.83;97197.31;29393;202;64009;-61
2023/02/27 02:45:20;;;;;;;0.80;0.80;;;;;;;-3.15;73.13;97195.28;29394;232;64013;-65
2023/02/27 02:46:07;;;;;;;0.70;0.70;;;;;;;-3.14;73.16;97207.56;29371;209;64008;-64
2023/02/27 02:47:11;;;;;;;0.80;0.80;;;;;;;-3.13;73.57;97203.87;29371;206;64014;-64
2023/02/27 02:48:11;;;;;;;0.70;0.70;;;;;;;-3.17;73.62;97202.63;29371;245;64009;-65
2023/02/27 02:49:13;;;;;;;0.75;0.75;;;;;;;-3.13;73.25;97198.56;29373;298;63009;-63
2023/02/27 02:50:13;;;;;;;0.70;0.70;;;;;;;-3.13;73.23;97207.34;29395;346;63004;-64
2023/02/27 02:51:08;;;;;;;0.80;0.80;;;;;;;-3.11;73.05;97201.81;29395;234;63009;-65
2023/02/27 02:52:01;;;;;;;0.80;0.80;;;;;;;-3.12;72.90;97194.91;29373;294;63004;-64
2023/02/27 02:53:10;;;;;;;0.70;0.70;;;;;;;-3.13;73.01;97201.22;29373;197;63008;-60
2023/02/27 02:53:56;;;;;;;0.70;0.70;;;;;;;-3.15;72.98;97196.13;29371;208;64009;-64
2023/02/27 02:55:24;;;;;;;0.70;0.70;;;;;;;-3.16;72.77;97198.97;29373;329;63009;-62
2023/02/27 02:56:03;;;;;;;0.70;0.70;;;;;;;-3.17;72.70;97202.63;29371;216;64009;-65
2023/02/27 02:56:43;;;;;;;0.70;0.70;;;;;;;-3.17;72.91;97197.31;29373;225;63009;-66
2023/02/27 02:57:21;;;;;;;0.80;0.80;;;;;;;-3.17;73.15;97205.28;29372;258;64004;-65
2023/02/27 02:58:11;;;;;;;0.80;0.80;;;;;;;-3.18;73.03;97201.00;29373;224;63020;-66
2023/02/27 02:59:10;;;;;;;0.70;0.70;;;;;;;-3.20;72.93;97197.72;29373;228;63018;-63
2023/02/27 03:00:05;;;;;;;0.70;0.70;;;;;;;-3.19;73.08;97199.38;29371;249;64013;-64
2023/02/27 03:00:45;;;;;;;0.70;0.70;;;;;;;-3.21;72.84;97193.44;29371;247;63997;-64
2023/02/27 03:01:31;;;;;;;0.80;0.80;;;;;;;-3.16;73.05;97198.97;29395;220;63035;-65